Buoy 41938

sailwx.info

Track history (hours):
 
Tides and Currents Weather Stations Pressure Air Temp Water Temp Dewpoint Dewpoint Depression Visibility Wind Speed Wind Dir Waves Ship Positions

Drifting buoy 41938

Last reported at 2015-Jan-14 13:00 UTC. Time now 2015-May-04 23:08 UTC.
Position N 36°03' W 058°27'.
Warning: this ship's position is months out of date.

Barometer 1021.2 mb
Water temperature 20.7 ° C

Date/timePositionNaut miles runAvg speedWind from/ knotsBaromVisibWave heightAir tempDewpointWater temp
2015-Jan-14 13:00N 36°03' W 058°27'4 0.7 1021.2 20.7
2015-Jan-14 08:00N 36°00' W 058°30'4 2.0 1019.3 20.8
2015-Jan-14 06:00N 35°57' W 058°32'0 0.0 1020.2 20.9
2015-Jan-14 01:00N 35°57' W 058°32'3 0.7 1022.2 20.8
2015-Jan-13 21:00N 35°56' W 058°35'1 0.6 1022.4 20.8
2015-Jan-13 19:00N 35°56' W 058°37'2 1.7 1022.3 20.8
2015-Jan-13 18:00N 35°55' W 058°39'5 1.6 1022.7 20.8
2015-Jan-13 15:00N 35°52' W 058°43'0 0.0 1024.7 20.7
2015-Jan-13 14:00N 35°52' W 058°43'8 1.9 1025.7 20.7
2015-Jan-13 10:00N 35°49' W 058°51'0 0.0 1025.6 20.8
2015-Jan-13 09:00N 35°49' W 058°51'0 0.2 1026.0 20.8
2015-Jan-13 08:00N 35°49' W 058°52'7 3.6 1027.0 20.9
2015-Jan-13 06:00N 35°44' W 058°59'0 0.0 1028.4 21.1
2015-Jan-13 02:00N 35°44' W 058°59'0 0.0 1032.2 21.1
2015-Jan-13 01:00N 35°44' W 058°59'3 2.8 1032.6 21.1
2015-Jan-13 00:00N 35°42' W 059°01'0 0.0 1032.8 21.1
2015-Jan-12 23:00N 35°42' W 059°01'0 0.1 1032.8 21.1
2015-Jan-12 21:00N 35°42' W 059°01'1 1.1 1032.8 21.1
2015-Jan-12 20:00N 35°42' W 059°02'2 1.0 1032.7 21.2
2015-Jan-12 18:00N 35°41' W 059°04'1 0.3 1033.6 21.2
2015-Jan-12 14:00N 35°41' W 059°06'1 0.3 1037.3 21.1
2015-Jan-12 10:00N 35°41' W 059°07'0 0.0 1036.8 21.1
2015-Jan-12 09:00N 35°41' W 059°07'1 1.1 1036.4 21.1
2015-Jan-12 08:00N 35°41' W 059°09'0 0.0 1036.6 21.1
2015-Jan-12 07:00N 35°41' W 059°09'4 3.7 1036.8 21.1
2015-Jan-12 06:00N 35°42' W 059°13'3 0.6 1037.1 21.1
2015-Jan-12 00:00N 35°43' W 059°17'0 0.0 1037.6 21.2
2015-Jan-11 23:00N 35°43' W 059°17'2 2.4 1037.2 21.2
2015-Jan-11 22:00N 35°44' W 059°20'2 1.9 1036.6 21.2
2015-Jan-11 21:00N 35°45' W 059°22'0 0.3 1035.8 21.2
2015-Jan-11 20:00N 35°45' W 059°22'14 2.4 1035.3 21.2
2015-Jan-11 14:00N 35°48' W 059°39'0 0.0 1035.4 20.9
2015-Jan-11 11:00N 35°48' W 059°39'2 2.1 1033.0 20.8
2015-Jan-11 10:00N 35°48' W 059°42'2 1.7 1032.4 20.7
2015-Jan-11 09:00N 35°49' W 059°44'2 1.7 1031.6 20.7
2015-Jan-11 08:00N 35°50' W 059°45'4 3.8 1031.0 20.6
2015-Jan-11 07:00N 35°51' W 059°50'0 0.0 1030.8 20.6
2015-Jan-11 06:00N 35°51' W 059°50'0 0.0 1030.3 20.6
2015-Jan-11 05:00N 35°51' W 059°50'5 2.5 1030.0 20.6
2015-Jan-11 03:00N 35°54' W 059°54'0 0.0 1029.0 20.6
2015-Jan-11 02:00N 35°54' W 059°54'3 2.5 1028.7 20.6
2015-Jan-11 01:00N 35°56' W 059°56'3 3.3 1027.7 20.6
2015-Jan-11 00:00N 35°58' W 059°60'2 1.0 1026.7 20.6
2015-Jan-10 22:00N 35°58' W 060°02'2 1.8 1025.1 20.6
2015-Jan-10 21:00N 35°59' W 060°04'1 1.1 1024.1 20.7
2015-Jan-10 20:00N 35°59' W 060°06'4 3.7 1023.2 20.7
2015-Jan-10 19:00N 36°00' W 060°10'0 0.2 1022.4 20.7
2015-Jan-10 18:00N 36°00' W 060°10'3 3.5 1022.2 20.7
2015-Jan-10 17:00N 36°01' W 060°14'5 2.3 1022.5 20.7
2015-Jan-10 15:00N 36°01' W 060°20'14 3.6 1023.7 20.7
2015-Jan-10 11:00N 36°03' W 060°38'0 0.0 1023.6 20.8
2015-Jan-10 10:00N 36°03' W 060°38'0 0.0 1023.7 20.8
2015-Jan-10 09:00N 36°03' W 060°38'2 1.1 1023.5 20.9
2015-Jan-10 07:00N 36°03' W 060°40'0 0.1 1024.7 21.0
2015-Jan-10 05:00N 36°03' W 060°40'5 1.2 1025.6 21.0
2015-Jan-10 01:00N 36°02' W 060°46'3 3.5 1028.6 21.0
2015-Jan-10 00:00N 36°02' W 060°50'0 0.0 1029.4 21.0
2015-Jan-09 22:00N 36°02' W 060°50'1 0.4 1029.7 21.0
2015-Jan-09 20:00N 36°02' W 060°51'3 1.3 1029.3 21.0
2015-Jan-09 18:00N 36°00' W 060°54'0 0.0 1029.0 21.0
2015-Jan-09 17:00N 36°00' W 060°54'1 0.9 1029.7 21.0
2015-Jan-09 16:00N 35°60' W 060°54'1 0.8 1030.4 21.0
2015-Jan-09 15:00N 35°60' W 060°55'1 0.9 1031.3 21.0
2015-Jan-09 14:00N 36°00' W 060°56'1 1.2 1032.5 21.0
2015-Jan-09 13:00N 36°01' W 060°58'0 0.1 1032.2 21.0
2015-Jan-09 10:00N 36°01' W 060°58'0 0.0 1029.7 21.0
2015-Jan-09 09:00N 36°01' W 060°58'4 1.9 1028.7 21.0
2015-Jan-09 07:00N 36°04' W 061°01'0 0.0 1027.8 21.0
2015-Jan-09 06:00N 36°04' W 061°01'4 4.2 1027.3 21.0
2015-Jan-09 05:00N 36°06' W 061°06'1 0.3 1026.7 21.0
2015-Jan-09 02:00N 36°07' W 061°06'0 0.4 1025.0 21.1
2015-Jan-09 01:00N 36°07' W 061°07'1 0.6 1024.2 21.1
2015-Jan-09 00:00N 36°06' W 061°08'2 2.3 1023.1 21.1
2015-Jan-08 23:00N 36°08' W 061°10'1 0.7 1021.1 21.0
2015-Jan-08 21:00N 36°09' W 061°11'1 1.4 1017.7 21.0
2015-Jan-08 20:00N 36°10' W 061°12'0 0.3 1016.4 21.0
2015-Jan-08 19:00N 36°10' W 061°12'2 1.9 1014.1 21.0
2015-Jan-08 18:00N 36°12' W 061°12'2 2.2 1012.8 21.0
2015-Jan-08 17:00N 36°14' W 061°13'0 0.1 1011.2 21.1
2015-Jan-08 15:00N 36°14' W 061°13'3 3.4 1009.3 21.1
2015-Jan-08 14:00N 36°17' W 061°15'0 0.0 1009.4 21.1
2015-Jan-08 11:00N 36°17' W 061°15'3 1.4 1006.2 21.1
2015-Jan-08 09:00N 36°17' W 061°18'0 0.0 1005.2 21.1
2015-Jan-08 08:00N 36°17' W 061°18'2 2.0 1005.3 21.0
2015-Jan-08 07:00N 36°17' W 061°20'5 4.7 1005.0 20.9
2015-Jan-08 06:00N 36°14' W 061°25'1 0.2 1005.5 20.9
2015-Jan-08 02:00N 36°14' W 061°26'1 0.8 1007.2 20.9
2015-Jan-08 01:00N 36°13' W 061°26'2 0.6 1007.5 20.9
2015-Jan-07 22:00N 36°12' W 061°28'1 1.0 1008.8 20.9
2015-Jan-07 21:00N 36°12' W 061°29'2 0.8 1008.8 20.9
2015-Jan-07 19:00N 36°12' W 061°31'2 2.0 1008.4 21.0
2015-Jan-07 18:00N 36°13' W 061°34'0 0.0 1008.4 21.1
2015-Jan-07 17:00N 36°13' W 061°34'2 1.1 1008.6 21.1
2015-Jan-07 15:00N 36°15' W 061°34'2 1.9 1010.2 21.2
2015-Jan-07 14:00N 36°16' W 061°35'4 1.2 1010.7 21.2
2015-Jan-07 11:00N 36°18' W 061°39'1 1.3 1009.2 21.2
2015-Jan-07 10:00N 36°17' W 061°40'2 1.8 1009.7 21.1
2015-Jan-07 09:00N 36°16' W 061°41'1 0.5 1009.7 21.1
2015-Jan-07 07:00N 36°15' W 061°41'4 3.7 1011.6 20.9
2015-Jan-07 06:00N 36°11' W 061°41'4 3.5 1013.0 20.9
2015-Jan-07 05:00N 36°15' W 061°41'2 0.8 1013.9 20.9
2015-Jan-07 02:00N 36°13' W 061°42'1 0.5 1017.7 20.8
2015-Jan-07 01:00N 36°13' W 061°43'0 0.1 1019.0 20.9
2015-Jan-06 22:00N 36°13' W 061°43'0 0.2 1020.3 20.9
2015-Jan-06 21:00N 36°13' W 061°43'2 2.0 1020.5 20.8
2015-Jan-06 20:00N 36°12' W 061°46'0 0.0 1020.5 20.9
2015-Jan-06 19:00N 36°12' W 061°46'0 0.0 1020.5 20.8
2015-Jan-06 17:00N 36°12' W 061°46'1 0.7 1021.4 20.8
2015-Jan-06 15:00N 36°13' W 061°48'0 0.1 1023.0 20.8
2015-Jan-06 14:00N 36°13' W 061°48'1 0.2 1023.3 20.8
2015-Jan-06 11:00N 36°13' W 061°48'1 0.7 1022.0 20.8
2015-Jan-06 09:00N 36°15' W 061°48'2 1.7 1020.9 20.9
2015-Jan-06 08:00N 36°16' W 061°47'0 0.0 1020.9 21.0
2015-Jan-06 07:00N 36°16' W 061°47'4 4.3 1020.8 21.1
2015-Jan-06 06:00N 36°20' W 061°45'0 0.0 1020.3 21.1
2015-Jan-06 02:00N 36°20' W 061°45'0 0.2 1017.8 21.3
2015-Jan-06 01:00N 36°20' W 061°45'1 0.6 1017.5 21.3
2015-Jan-06 00:00N 36°21' W 061°45'0 0.0 1017.3 21.2
2015-Jan-05 23:00N 36°21' W 061°45'1 0.5 1017.5 21.1
2015-Jan-05 21:00N 36°21' W 061°46'0 0.1 1015.0 21.0
2015-Jan-05 19:00N 36°21' W 061°46'2 1.5 1015.8 21.2
2015-Jan-05 18:00N 36°20' W 061°48'2 1.5 1016.3 21.2
2015-Jan-05 17:00N 36°21' W 061°46'1 0.6 1017.2 21.2
2015-Jan-05 15:00N 36°20' W 061°47'0 0.0 1019.3 21.2
2015-Jan-05 14:00N 36°20' W 061°47'1 1.0 1021.0 21.2
2015-Jan-05 13:00N 36°19' W 061°46'0 0.0 1021.5 21.2
2015-Jan-05 11:00N 36°19' W 061°46'1 0.8 1021.5 21.2
2015-Jan-05 10:00N 36°19' W 061°45'0 0.4 1022.2 21.1
2015-Jan-05 09:00N 36°19' W 061°45'3 2.9 1022.5 21.1
2015-Jan-05 08:00N 36°16' W 061°45'0 0.0 1023.5 21.0
2015-Jan-05 06:00N 36°16' W 061°45'0 0.0 1025.5 20.9
2015-Jan-05 05:00N 36°16' W 061°45'0 0.0 1026.4 20.9
2015-Jan-05 02:00N 36°16' W 061°45'1 0.8 1028.6 21.0
2015-Jan-05 01:00N 36°15' W 061°46'1 1.2 1029.2 21.0
2015-Jan-05 00:00N 36°14' W 061°46'0 0.0 1028.8 21.0
2015-Jan-04 23:00N 36°14' W 061°46'1 1.3 1028.8 21.0
2015-Jan-04 22:00N 36°13' W 061°47'0 0.4 1028.9 21.0
2015-Jan-04 21:00N 36°13' W 061°47'2 2.1 1029.1 21.0
2015-Jan-04 20:00N 36°11' W 061°48'2 0.8 1029.5 20.9
2015-Jan-04 18:00N 36°09' W 061°48'3 1.1 1029.9 20.9
2015-Jan-04 15:00N 36°06' W 061°50'1 1.1 1032.3 21.0
2015-Jan-04 14:00N 36°05' W 061°51'1 1.3 1033.3 21.0
2015-Jan-04 13:00N 36°04' W 061°51'   1033.7 21.0
Track history (hours):
 
Tides and Currents Weather Stations Pressure Air Temp Water Temp Dewpoint Dewpoint Depression Visibility Wind Speed Wind Dir Waves Ship Positions

Drifting buoy 41938

Last reported at 2015-Jan-14 13:00 UTC. Time now 2015-May-04 23:08 UTC.
Position N 36°03' W 058°27'.
Warning: this ship's position is months out of date.

Barometer 1021.2 mb
Water temperature 20.7 ° C

Date/timePositionNaut miles runAvg speedWind from/ knotsBaromVisibWave heightAir tempDewpointWater temp
2015-Jan-14 13:00N 36°03' W 058°27'4 0.7 1021.2 20.7
2015-Jan-14 08:00N 36°00' W 058°30'4 2.0 1019.3 20.8
2015-Jan-14 06:00N 35°57' W 058°32'0 0.0 1020.2 20.9
2015-Jan-14 01:00N 35°57' W 058°32'3 0.7 1022.2 20.8
2015-Jan-13 21:00N 35°56' W 058°35'1 0.6 1022.4 20.8
2015-Jan-13 19:00N 35°56' W 058°37'2 1.7 1022.3 20.8
2015-Jan-13 18:00N 35°55' W 058°39'5 1.6 1022.7 20.8
2015-Jan-13 15:00N 35°52' W 058°43'0 0.0 1024.7 20.7
2015-Jan-13 14:00N 35°52' W 058°43'8 1.9 1025.7 20.7
2015-Jan-13 10:00N 35°49' W 058°51'0 0.0 1025.6 20.8
2015-Jan-13 09:00N 35°49' W 058°51'0 0.2 1026.0 20.8
2015-Jan-13 08:00N 35°49' W 058°52'7 3.6 1027.0 20.9
2015-Jan-13 06:00N 35°44' W 058°59'0 0.0 1028.4 21.1
2015-Jan-13 02:00N 35°44' W 058°59'0 0.0 1032.2 21.1
2015-Jan-13 01:00N 35°44' W 058°59'3 2.8 1032.6 21.1
2015-Jan-13 00:00N 35°42' W 059°01'0 0.0 1032.8 21.1
2015-Jan-12 23:00N 35°42' W 059°01'0 0.1 1032.8 21.1
2015-Jan-12 21:00N 35°42' W 059°01'1 1.1 1032.8 21.1
2015-Jan-12 20:00N 35°42' W 059°02'2 1.0 1032.7 21.2
2015-Jan-12 18:00N 35°41' W 059°04'1 0.3 1033.6 21.2
2015-Jan-12 14:00N 35°41' W 059°06'1 0.3 1037.3 21.1
2015-Jan-12 10:00N 35°41' W 059°07'0 0.0 1036.8 21.1
2015-Jan-12 09:00N 35°41' W 059°07'1 1.1 1036.4 21.1
2015-Jan-12 08:00N 35°41' W 059°09'0 0.0 1036.6 21.1
2015-Jan-12 07:00N 35°41' W 059°09'4 3.7 1036.8 21.1
2015-Jan-12 06:00N 35°42' W 059°13'3 0.6 1037.1 21.1
2015-Jan-12 00:00N 35°43' W 059°17'0 0.0 1037.6 21.2
2015-Jan-11 23:00N 35°43' W 059°17'2 2.4 1037.2 21.2
2015-Jan-11 22:00N 35°44' W 059°20'2 1.9 1036.6 21.2
2015-Jan-11 21:00N 35°45' W 059°22'0 0.3 1035.8 21.2
2015-Jan-11 20:00N 35°45' W 059°22'14 2.4 1035.3 21.2
2015-Jan-11 14:00N 35°48' W 059°39'0 0.0 1035.4 20.9
2015-Jan-11 11:00N 35°48' W 059°39'2 2.1 1033.0 20.8
2015-Jan-11 10:00N 35°48' W 059°42'2 1.7 1032.4 20.7
2015-Jan-11 09:00N 35°49' W 059°44'2 1.7 1031.6 20.7
2015-Jan-11 08:00N 35°50' W 059°45'4 3.8 1031.0 20.6
2015-Jan-11 07:00N 35°51' W 059°50'0 0.0 1030.8 20.6
2015-Jan-11 06:00N 35°51' W 059°50'0 0.0 1030.3 20.6
2015-Jan-11 05:00N 35°51' W 059°50'5 2.5 1030.0 20.6
2015-Jan-11 03:00N 35°54' W 059°54'0 0.0 1029.0 20.6
2015-Jan-11 02:00N 35°54' W 059°54'3 2.5 1028.7 20.6
2015-Jan-11 01:00N 35°56' W 059°56'3 3.3 1027.7 20.6
2015-Jan-11 00:00N 35°58' W 059°60'2 1.0 1026.7 20.6
2015-Jan-10 22:00N 35°58' W 060°02'2 1.8 1025.1 20.6
2015-Jan-10 21:00N 35°59' W 060°04'1 1.1 1024.1 20.7
2015-Jan-10 20:00N 35°59' W 060°06'4 3.7 1023.2 20.7
2015-Jan-10 19:00N 36°00' W 060°10'0 0.2 1022.4 20.7
2015-Jan-10 18:00N 36°00' W 060°10'3 3.5 1022.2 20.7
2015-Jan-10 17:00N 36°01' W 060°14'5 2.3 1022.5 20.7
2015-Jan-10 15:00N 36°01' W 060°20'14 3.6 1023.7 20.7
2015-Jan-10 11:00N 36°03' W 060°38'0 0.0 1023.6 20.8
2015-Jan-10 10:00N 36°03' W 060°38'0 0.0 1023.7 20.8
2015-Jan-10 09:00N 36°03' W 060°38'2 1.1 1023.5 20.9
2015-Jan-10 07:00N 36°03' W 060°40'0 0.1 1024.7 21.0
2015-Jan-10 05:00N 36°03' W 060°40'5 1.2 1025.6 21.0
2015-Jan-10 01:00N 36°02' W 060°46'3 3.5 1028.6 21.0
2015-Jan-10 00:00N 36°02' W 060°50'0 0.0 1029.4 21.0
2015-Jan-09 22:00N 36°02' W 060°50'1 0.4 1029.7 21.0
2015-Jan-09 20:00N 36°02' W 060°51'3 1.3 1029.3 21.0
2015-Jan-09 18:00N 36°00' W 060°54'0 0.0 1029.0 21.0
2015-Jan-09 17:00N 36°00' W 060°54'1 0.9 1029.7 21.0
2015-Jan-09 16:00N 35°60' W 060°54'1 0.8 1030.4 21.0
2015-Jan-09 15:00N 35°60' W 060°55'1 0.9 1031.3 21.0
2015-Jan-09 14:00N 36°00' W 060°56'1 1.2 1032.5 21.0
2015-Jan-09 13:00N 36°01' W 060°58'0 0.1 1032.2 21.0
2015-Jan-09 10:00N 36°01' W 060°58'0 0.0 1029.7 21.0
2015-Jan-09 09:00N 36°01' W 060°58'4 1.9 1028.7 21.0
2015-Jan-09 07:00N 36°04' W 061°01'0 0.0 1027.8 21.0
2015-Jan-09 06:00N 36°04' W 061°01'4 4.2 1027.3 21.0
2015-Jan-09 05:00N 36°06' W 061°06'1 0.3 1026.7 21.0
2015-Jan-09 02:00N 36°07' W 061°06'0 0.4 1025.0 21.1
2015-Jan-09 01:00N 36°07' W 061°07'1 0.6 1024.2 21.1
2015-Jan-09 00:00N 36°06' W 061°08'2 2.3 1023.1 21.1
2015-Jan-08 23:00N 36°08' W 061°10'1 0.7 1021.1 21.0
2015-Jan-08 21:00N 36°09' W 061°11'1 1.4 1017.7 21.0
2015-Jan-08 20:00N 36°10' W 061°12'0 0.3 1016.4 21.0
2015-Jan-08 19:00N 36°10' W 061°12'2 1.9 1014.1 21.0
2015-Jan-08 18:00N 36°12' W 061°12'2 2.2 1012.8 21.0
2015-Jan-08 17:00N 36°14' W 061°13'0 0.1 1011.2 21.1
2015-Jan-08 15:00N 36°14' W 061°13'3 3.4 1009.3 21.1
2015-Jan-08 14:00N 36°17' W 061°15'0 0.0 1009.4 21.1
2015-Jan-08 11:00N 36°17' W 061°15'3 1.4 1006.2 21.1
2015-Jan-08 09:00N 36°17' W 061°18'0 0.0 1005.2 21.1
2015-Jan-08 08:00N 36°17' W 061°18'2 2.0 1005.3 21.0
2015-Jan-08 07:00N 36°17' W 061°20'5 4.7 1005.0 20.9
2015-Jan-08 06:00N 36°14' W 061°25'1 0.2 1005.5 20.9
2015-Jan-08 02:00N 36°14' W 061°26'1 0.8 1007.2 20.9
2015-Jan-08 01:00N 36°13' W 061°26'2 0.6 1007.5 20.9
2015-Jan-07 22:00N 36°12' W 061°28'1 1.0 1008.8 20.9
2015-Jan-07 21:00N 36°12' W 061°29'2 0.8 1008.8 20.9
2015-Jan-07 19:00N 36°12' W 061°31'2 2.0 1008.4 21.0
2015-Jan-07 18:00N 36°13' W 061°34'0 0.0 1008.4 21.1
2015-Jan-07 17:00N 36°13' W 061°34'2 1.1 1008.6 21.1
2015-Jan-07 15:00N 36°15' W 061°34'2 1.9 1010.2 21.2
2015-Jan-07 14:00N 36°16' W 061°35'4 1.2 1010.7 21.2
2015-Jan-07 11:00N 36°18' W 061°39'1 1.3 1009.2 21.2
2015-Jan-07 10:00N 36°17' W 061°40'2 1.8 1009.7 21.1
2015-Jan-07 09:00N 36°16' W 061°41'1 0.5 1009.7 21.1
2015-Jan-07 07:00N 36°15' W 061°41'4 3.7 1011.6 20.9
2015-Jan-07 06:00N 36°11' W 061°41'4 3.5 1013.0 20.9
2015-Jan-07 05:00N 36°15' W 061°41'2 0.8 1013.9 20.9
2015-Jan-07 02:00N 36°13' W 061°42'1 0.5 1017.7 20.8
2015-Jan-07 01:00N 36°13' W 061°43'0 0.1 1019.0 20.9
2015-Jan-06 22:00N 36°13' W 061°43'0 0.2 1020.3 20.9
2015-Jan-06 21:00N 36°13' W 061°43'2 2.0 1020.5 20.8
2015-Jan-06 20:00N 36°12' W 061°46'0 0.0 1020.5 20.9
2015-Jan-06 19:00N 36°12' W 061°46'0 0.0 1020.5 20.8
2015-Jan-06 17:00N 36°12' W 061°46'1 0.7 1021.4 20.8
2015-Jan-06 15:00N 36°13' W 061°48'0 0.1 1023.0 20.8
2015-Jan-06 14:00N 36°13' W 061°48'1 0.2 1023.3 20.8
2015-Jan-06 11:00N 36°13' W 061°48'1 0.7 1022.0 20.8
2015-Jan-06 09:00N 36°15' W 061°48'2 1.7 1020.9 20.9
2015-Jan-06 08:00N 36°16' W 061°47'0 0.0 1020.9 21.0
2015-Jan-06 07:00N 36°16' W 061°47'4 4.3 1020.8 21.1
2015-Jan-06 06:00N 36°20' W 061°45'0 0.0 1020.3 21.1
2015-Jan-06 02:00N 36°20' W 061°45'0 0.2 1017.8 21.3
2015-Jan-06 01:00N 36°20' W 061°45'1 0.6 1017.5 21.3
2015-Jan-06 00:00N 36°21' W 061°45'0 0.0 1017.3 21.2
2015-Jan-05 23:00N 36°21' W 061°45'1 0.5 1017.5 21.1
2015-Jan-05 21:00N 36°21' W 061°46'0 0.1 1015.0 21.0
2015-Jan-05 19:00N 36°21' W 061°46'2 1.5 1015.8 21.2
2015-Jan-05 18:00N 36°20' W 061°48'2 1.5 1016.3 21.2
2015-Jan-05 17:00N 36°21' W 061°46'1 0.6 1017.2 21.2
2015-Jan-05 15:00N 36°20' W 061°47'0 0.0 1019.3 21.2
2015-Jan-05 14:00N 36°20' W 061°47'1 1.0 1021.0 21.2
2015-Jan-05 13:00N 36°19' W 061°46'0 0.0 1021.5 21.2
2015-Jan-05 11:00N 36°19' W 061°46'1 0.8 1021.5 21.2
2015-Jan-05 10:00N 36°19' W 061°45'0 0.4 1022.2 21.1
2015-Jan-05 09:00N 36°19' W 061°45'3 2.9 1022.5 21.1
2015-Jan-05 08:00N 36°16' W 061°45'0 0.0 1023.5 21.0
2015-Jan-05 06:00N 36°16' W 061°45'0 0.0 1025.5 20.9
2015-Jan-05 05:00N 36°16' W 061°45'0 0.0 1026.4 20.9
2015-Jan-05 02:00N 36°16' W 061°45'1 0.8 1028.6 21.0
2015-Jan-05 01:00N 36°15' W 061°46'1 1.2 1029.2 21.0
2015-Jan-05 00:00N 36°14' W 061°46'0 0.0 1028.8 21.0
2015-Jan-04 23:00N 36°14' W 061°46'1 1.3 1028.8 21.0
2015-Jan-04 22:00N 36°13' W 061°47'0 0.4 1028.9 21.0
2015-Jan-04 21:00N 36°13' W 061°47'2 2.1 1029.1 21.0
2015-Jan-04 20:00N 36°11' W 061°48'2 0.8 1029.5 20.9
2015-Jan-04 18:00N 36°09' W 061°48'3 1.1 1029.9 20.9
2015-Jan-04 15:00N 36°06' W 061°50'1 1.1 1032.3 21.0
2015-Jan-04 14:00N 36°05' W 061°51'1 1.3 1033.3 21.0
2015-Jan-04 13:00N 36°04' W 061°51'   1033.7 21.0

Dump ship's entire track history